Terminal Aerodrome Forecast
Issued by NWS Billings, MT

Home | Current Version | Previous Version | Text Only | Print | Product List | Glossary On
Versions: 1 2 3 4 5 6 7 8 9 10 11 12 13 14 15 16 17 18 19 20 21 22 23 24 25 26 27 28 29 30 31 32 33 34 35 36 37 38
000
FTUS45 KBYZ 051423 AAA
TAFMLS
TAF AMD
KMLS 051423Z 0514/0612 04010KT P6SM VCSH SCT009 OVC015
      TEMPO 0514/0516 OVC006
     FM052000 36007KT P6SM FEW020 BKN050
     FM060000 33014KT P6SM VCTS SCT035 BKN050CB
     FM060600 28013KT P6SM SCT120=

USA.gov is the U.S. government's official web portal to all federal, state and local government web resources and services.